createdAt,value
2022-08-17T03:52:30.263Z,74.74
2022-08-17T03:55:51.379Z,74.21
2022-08-17T03:58:56.828Z,73.29
2022-08-17T04:02:05.146Z,72.49
2022-08-17T04:05:08.477Z,72.29
2022-08-17T04:08:11.791Z,72.15
2022-08-17T04:11:15.004Z,71.82
2022-08-17T04:14:17.847Z,71.67
2022-08-17T04:17:23.857Z,71.16
2022-08-17T04:20:34.497Z,70.71
2022-08-17T04:23:38.672Z,69.43
2022-08-17T04:26:52.047Z,68.08
2022-08-17T04:29:58.527Z,67.72
2022-08-17T04:33:08.674Z,65.43
2022-08-17T04:36:14.120Z,64.12
2022-08-17T04:39:16.914Z,63.21
2022-08-17T04:42:22.007Z,62.60
2022-08-17T04:45:24.650Z,61.89
2022-08-17T04:48:35.980Z,61.35
2022-08-17T04:51:54.529Z,60.68
2022-08-17T04:55:04.258Z,59.84
2022-08-17T04:58:07.828Z,60.78
2022-08-17T05:01:10.980Z,61.22
2022-08-17T05:04:26.892Z,57.92
2022-08-17T05:07:37.565Z,58.68
2022-08-17T05:10:45.520Z,57.99
2022-08-17T05:13:50.366Z,55.94
2022-08-17T05:16:53.092Z,55.55
2022-08-17T05:19:56.004Z,53.51
2022-08-17T05:23:02.139Z,52.66
2022-08-17T05:26:06.294Z,52.23
2022-08-17T05:29:12.325Z,52.38
2022-08-17T05:32:38.735Z,51.04
2022-08-17T05:35:40.354Z,51.07
2022-08-17T05:38:43.778Z,51.14
2022-08-17T05:41:47.944Z,50.31
2022-08-17T05:44:50.972Z,49.01
2022-08-17T05:47:53.981Z,47.50
2022-08-17T05:51:09.910Z,46.89
2022-08-17T05:54:25.674Z,46.08
2022-08-17T05:57:53.886Z,46.25
2022-08-17T06:01:12.187Z,45.72
2022-08-17T06:04:18.287Z,44.92
2022-08-17T06:07:29.593Z,44.42
2022-08-17T06:10:35.850Z,44.26
2022-08-17T06:13:47.921Z,42.72
2022-08-17T06:17:01.017Z,43.86
2022-08-17T06:20:10.704Z,41.84
2022-08-17T06:23:43.370Z,41.29
2022-08-17T07:35:51.234Z,34.78
2022-08-17T07:38:58.254Z,34.53
2022-08-17T07:42:05.274Z,33.66
2022-08-17T07:45:28.494Z,33.94
2022-08-17T07:48:36.429Z,33.75
2022-08-17T07:51:55.661Z,33.86
2022-08-17T07:59:43.191Z,31.89
2022-08-17T08:06:23.859Z,32.57
2022-08-17T08:10:00.893Z,31.56
2022-08-17T08:13:23.553Z,31.85
2022-08-17T08:16:29.764Z,29.05
2022-08-17T08:19:34.055Z,29.51
2022-08-17T08:23:03.258Z,29.75
2022-08-17T08:26:37.511Z,29.98
2022-08-17T08:30:08.134Z,28.88
2022-08-17T08:37:24.932Z,26.78
2022-08-17T08:40:41.572Z,28.34
2022-08-17T08:44:59.822Z,28.04
2022-08-17T08:48:52.835Z,27.88
2022-08-17T08:52:03.513Z,29.27
2022-08-17T08:55:14.974Z,28.04
2022-08-17T08:59:21.869Z,27.98
2022-08-17T09:03:52.801Z,27.84
2022-08-17T09:07:38.534Z,26.78
2022-08-17T09:11:07.216Z,26.04
2022-08-17T09:14:21.020Z,27.41
2022-08-17T09:19:01.562Z,26.03
2022-08-17T09:31:56.877Z,26.48
2022-08-17T09:35:06.115Z,26.49
2022-08-17T09:43:36.537Z,26.91
2022-08-17T09:46:53.712Z,24.55
2022-08-17T09:50:15.774Z,25.15
2022-08-17T09:53:18.527Z,25.30
2022-08-17T09:56:24.273Z,25.54
2022-08-17T10:00:31.292Z,26.62
2022-08-17T10:03:58.929Z,26.41
2022-08-17T10:29:48.602Z,26.82
2022-08-17T10:32:57.424Z,24.51
2022-08-17T10:36:19.623Z,23.16
2022-08-17T10:39:50.413Z,23.74
2022-08-17T10:43:20.750Z,23.59
2022-08-17T10:50:49.571Z,23.53
2022-08-17T10:54:01.276Z,23.63
2022-08-17T10:57:28.215Z,24.98
2022-08-17T11:00:41.547Z,25.06
2022-08-17T11:03:57.469Z,23.73
2022-08-17T11:07:29.326Z,23.26
2022-08-17T11:10:58.661Z,22.54
2022-08-17T11:14:24.031Z,21.48
2022-08-17T11:17:41.442Z,20.48
2022-08-17T11:21:00.057Z,21.49
2022-08-17T11:24:24.257Z,22.00
2022-08-17T11:27:33.208Z,21.79
2022-08-17T11:30:59.525Z,24.05
2022-08-17T11:34:19.805Z,24.07
2022-08-17T11:37:45.527Z,25.08
2022-08-17T11:41:29.707Z,24.82
2022-08-17T11:44:55.189Z,24.25
2022-08-17T11:48:28.420Z,22.97
2022-08-17T11:52:01.322Z,22.36
2022-08-17T11:55:33.968Z,23.28
2022-08-17T11:58:37.922Z,22.38
2022-08-17T12:01:56.789Z,23.11
2022-08-17T12:05:04.665Z,23.17
2022-08-17T12:08:16.009Z,23.87
2022-08-17T12:11:55.542Z,22.87
2022-08-17T12:15:10.193Z,22.36
2022-08-17T12:18:35.566Z,23.96
2022-08-17T12:22:11.125Z,23.07
2022-08-17T12:26:30.718Z,23.30
2022-08-17T12:30:00.657Z,22.68
2022-08-17T12:33:25.419Z,22.25
2022-08-17T12:40:29.425Z,22.61
2022-08-17T12:43:53.519Z,25.26
2022-08-17T12:47:07.967Z,25.72
2022-08-17T12:50:28.588Z,25.46
2022-08-17T13:03:06.159Z,25.83
2022-08-17T13:10:57.065Z,25.26
2022-08-17T13:14:19.811Z,24.11
2022-08-17T13:18:28.282Z,24.92
2022-08-17T13:25:03.820Z,24.00
2022-08-17T13:28:18.666Z,25.51
2022-08-17T13:31:52.206Z,24.75
2022-08-17T13:35:13.781Z,25.12
2022-08-17T13:38:39.477Z,24.04
2022-08-17T13:41:45.225Z,24.17
2022-08-17T13:44:49.964Z,24.86
2022-08-17T13:48:16.581Z,25.05
2022-08-17T13:51:29.151Z,24.74
2022-08-17T13:54:35.484Z,24.44
2022-08-17T13:57:38.162Z,24.96
2022-08-17T14:00:41.657Z,24.74
2022-08-17T14:03:44.510Z,24.30
2022-08-17T14:07:02.074Z,24.30
2022-08-17T14:10:20.260Z,24.03
2022-08-17T14:13:42.913Z,23.92
2022-08-17T14:16:45.927Z,24.07
2022-08-17T14:19:50.946Z,24.50
2022-08-17T14:22:59.252Z,24.58
2022-08-17T14:26:02.162Z,23.82
2022-08-17T14:29:05.317Z,23.86
2022-08-17T14:32:22.172Z,23.95
2022-08-17T14:35:27.848Z,23.83
2022-08-17T14:38:30.536Z,23.47
2022-08-17T14:41:33.601Z,23.41
2022-08-17T14:44:37.048Z,23.19
2022-08-17T14:47:41.426Z,23.42
2022-08-17T14:50:46.133Z,23.51
2022-08-17T14:53:50.208Z,23.98
2022-08-17T14:57:04.620Z,23.41
2022-08-17T15:00:19.560Z,22.71
2022-08-17T15:03:23.869Z,22.96
2022-08-17T15:06:27.061Z,22.65
2022-08-17T15:09:31.475Z,23.24
2022-08-17T15:12:46.930Z,22.65
2022-08-17T15:15:50.383Z,23.32
2022-08-17T15:19:22.997Z,23.46
2022-08-17T15:22:27.539Z,23.80
2022-08-17T15:25:32.964Z,23.20
2022-08-17T15:28:35.766Z,24.28
2022-08-17T15:31:44.830Z,23.55
2022-08-17T15:34:47.653Z,23.59
2022-08-17T15:37:52.207Z,23.18
2022-08-17T15:40:57.595Z,23.36
2022-08-17T15:44:09.783Z,24.17
2022-08-17T15:47:18.578Z,24.16
2022-08-17T15:50:22.554Z,24.21
2022-08-17T15:53:25.229Z,24.25
2022-08-17T15:56:29.060Z,24.66
2022-08-17T15:59:31.840Z,24.02
2022-08-17T16:03:44.585Z,24.82
2022-08-17T16:06:00.514Z,24.47
2022-08-17T16:09:06.614Z,23.94
2022-08-17T16:12:16.740Z,23.97
2022-08-17T16:15:19.471Z,24.26
2022-08-17T16:18:25.581Z,24.60
2022-08-17T16:21:39.321Z,24.60
2022-08-17T16:24:57.106Z,24.76
2022-08-17T16:28:07.829Z,24.64
2022-08-17T16:31:14.945Z,24.44
2022-08-17T16:34:19.042Z,24.54
2022-08-17T16:37:22.203Z,24.50
2022-08-17T16:40:29.632Z,25.09
2022-08-17T16:43:34.861Z,25.08
2022-08-17T16:46:40.673Z,25.22
2022-08-17T16:49:50.443Z,25.61
2022-08-17T16:53:07.732Z,25.73
2022-08-17T16:56:10.670Z,26.05
2022-08-17T16:59:30.236Z,25.81
2022-08-17T17:02:37.741Z,25.54
2022-08-17T17:06:03.698Z,25.90
2022-08-17T17:09:14.260Z,26.31
2022-08-17T17:12:19.026Z,26.75
2022-08-17T17:16:07.112Z,26.20
2022-08-17T17:19:12.018Z,26.31
2022-08-17T17:22:17.773Z,26.41
2022-08-17T17:25:51.419Z,26.73
2022-08-17T17:29:16.346Z,27.09
2022-08-17T17:32:32.592Z,27.54
2022-08-17T17:36:05.129Z,27.65
2022-08-17T17:39:17.364Z,27.67
2022-08-17T17:42:26.977Z,27.66
2022-08-17T17:46:27.942Z,28.19
2022-08-17T17:49:39.413Z,28.17
2022-08-17T17:52:50.598Z,28.34
2022-08-17T17:56:19.664Z,28.88
2022-08-17T18:00:02.450Z,28.76
2022-08-17T18:03:50.850Z,29.15
2022-08-17T18:07:26.029Z,29.45
2022-08-17T18:10:56.925Z,29.62
2022-08-17T18:14:21.418Z,29.56
2022-08-17T18:17:24.445Z,30.32
2022-08-17T18:20:36.031Z,29.78
2022-08-17T18:24:10.882Z,30.22
2022-08-17T18:27:36.968Z,29.67
2022-08-17T18:31:10.636Z,29.39
2022-08-17T18:34:45.858Z,29.94
2022-08-17T18:37:56.047Z,30.33
2022-08-17T18:41:37.315Z,30.31
2022-08-17T18:44:39.902Z,30.61
2022-08-17T18:47:57.728Z,30.74
2022-08-17T18:51:26.366Z,31.24
2022-08-17T18:55:08.935Z,31.85
2022-08-17T18:58:24.182Z,32.33
2022-08-17T19:01:53.800Z,32.49
2022-08-17T19:05:17.117Z,32.00
2022-08-17T19:08:29.822Z,32.10
2022-08-17T19:11:35.722Z,34.73
2022-08-17T19:14:44.363Z,35.65
2022-08-17T19:17:55.410Z,35.91
2022-08-17T19:21:06.688Z,36.57
2022-08-17T19:24:21.798Z,36.44
2022-08-17T19:27:41.776Z,36.21
2022-08-17T19:30:57.528Z,36.12
2022-08-17T19:34:02.088Z,35.96
2022-08-17T19:37:32.526Z,35.92
2022-08-17T19:41:11.661Z,35.69
2022-08-17T19:44:21.047Z,35.94
2022-08-17T19:47:54.415Z,35.82
2022-08-17T19:51:05.419Z,35.83
2022-08-17T19:54:24.860Z,36.70
2022-08-17T19:58:00.735Z,35.93
2022-08-17T20:01:17.873Z,35.97
2022-08-17T20:04:31.803Z,36.31
2022-08-17T20:07:38.233Z,36.46
2022-08-17T20:10:48.143Z,36.57
2022-08-17T20:14:14.810Z,36.88
2022-08-17T20:17:18.126Z,36.99
2022-08-17T20:21:09.317Z,37.49
2022-08-17T20:25:29.937Z,37.58
2022-08-17T20:28:36.055Z,36.71
2022-08-17T20:31:59.331Z,37.65
2022-08-17T20:35:27.115Z,38.90
2022-08-17T20:38:46.149Z,38.02
2022-08-17T20:42:11.065Z,40.10
2022-08-17T20:45:26.296Z,39.01
2022-08-17T20:48:38.321Z,40.37
2022-08-17T20:52:36.213Z,37.28
2022-08-17T20:55:51.304Z,37.14
2022-08-17T20:58:55.577Z,36.06
2022-08-17T21:02:18.067Z,36.08
2022-08-17T21:06:04.827Z,37.45
2022-08-17T21:09:29.991Z,38.24
2022-08-17T21:12:48.148Z,37.54
2022-08-17T21:15:59.571Z,38.13
2022-08-17T21:20:10.857Z,37.66
2022-08-17T21:23:42.497Z,37.58
2022-08-17T21:27:07.282Z,36.99
2022-08-17T21:30:33.748Z,39.08
2022-08-17T21:33:39.614Z,40.32
2022-08-17T21:36:47.136Z,42.58
2022-08-17T21:39:53.442Z,43.53
2022-08-17T21:43:27.517Z,44.19
2022-08-17T21:46:36.928Z,44.10
2022-08-17T21:49:40.215Z,45.61
2022-08-17T21:52:43.674Z,45.56
2022-08-17T21:55:50.304Z,44.62
2022-08-17T21:59:19.921Z,45.02
2022-08-17T22:02:31.864Z,45.55
2022-08-17T22:05:39.971Z,47.42
2022-08-17T22:08:43.197Z,47.48
2022-08-17T22:11:52.722Z,48.48
2022-08-17T22:15:07.482Z,48.65
2022-08-17T22:18:19.647Z,49.34
2022-08-17T22:21:22.619Z,49.87
2022-08-17T22:24:28.074Z,49.75
2022-08-17T22:28:04.220Z,50.37
2022-08-17T22:31:10.469Z,51.48
2022-08-17T22:34:17.643Z,51.48
2022-08-17T22:37:29.071Z,49.85
2022-08-17T22:40:34.529Z,52.13
2022-08-17T22:43:38.909Z,50.71
2022-08-17T22:47:23.098Z,50.18
2022-08-17T22:50:29.218Z,50.59
2022-08-17T22:53:50.723Z,48.86
2022-08-17T22:57:19.685Z,47.29
2022-08-17T23:00:41.150Z,46.87
2022-08-17T23:03:54.563Z,47.18
2022-08-17T23:06:57.372Z,47.34
2022-08-17T23:10:02.224Z,48.06
2022-08-17T23:13:05.074Z,48.06
2022-08-17T23:16:07.987Z,48.68
2022-08-17T23:19:18.477Z,48.43
2022-08-17T23:22:21.791Z,48.73
2022-08-17T23:25:30.156Z,49.08
2022-08-17T23:28:37.407Z,49.09
2022-08-17T23:31:40.576Z,49.35
2022-08-17T23:34:45.078Z,49.03
2022-08-17T23:37:47.787Z,49.11
2022-08-17T23:40:50.823Z,49.17
2022-08-17T23:43:53.738Z,49.47
2022-08-17T23:46:57.030Z,50.91
2022-08-17T23:50:01.610Z,51.29
2022-08-17T23:53:06.483Z,50.89
2022-08-17T23:56:11.269Z,51.90
2022-08-17T23:59:16.095Z,51.92
